createdAt,value
2018-06-17T09:13:37.393Z,5.00
2018-06-17T09:16:08.533Z,4.90
2018-06-17T10:54:45.384Z,4.30
2018-06-17T10:57:16.837Z,4.40
2018-06-17T10:59:48.681Z,4.87
2018-06-17T11:02:20.699Z,5.10
2018-06-17T11:04:52.133Z,4.70
2018-06-17T11:07:34.129Z,3.97
2018-06-17T11:10:08.836Z,4.20
2018-06-17T11:12:40.128Z,4.37
2018-06-17T11:15:13.656Z,4.70
2018-06-17T11:17:47.639Z,4.40
2018-06-17T11:20:22.464Z,4.80
2018-06-17T11:22:54.395Z,3.97
2018-06-17T11:25:32.176Z,4.07
2018-06-17T11:28:06.143Z,3.83
2018-06-17T11:30:37.650Z,4.30
2018-06-17T11:33:08.876Z,4.20
2018-06-17T11:35:40.250Z,4.07
2018-06-17T11:38:12.500Z,3.70
2018-06-17T11:40:44.067Z,4.17
2018-06-17T11:43:16.391Z,3.73
2018-06-17T11:45:47.789Z,3.70
2018-06-17T11:48:19.152Z,4.03
2018-06-17T11:50:50.592Z,4.00
2018-06-17T11:53:21.870Z,3.73
2018-06-17T11:55:53.299Z,4.30
2018-06-17T11:59:02.583Z,4.20
2018-06-17T12:01:34.041Z,4.00
2018-06-17T12:04:05.789Z,3.77
2018-06-17T12:06:37.160Z,3.87
2018-06-17T12:09:10.709Z,3.70
2018-06-17T12:11:42.499Z,3.97
2018-06-17T12:14:18.299Z,3.90
2018-06-17T12:16:50.437Z,3.50
2018-06-17T12:19:22.457Z,4.10
2018-06-17T12:21:57.569Z,3.47
2018-06-17T12:24:31.330Z,3.83
2018-06-17T12:27:04.911Z,3.90
2018-06-17T12:29:37.418Z,3.90
2018-06-17T12:32:09.911Z,3.40
2018-06-17T12:34:41.922Z,3.77
2018-06-17T12:37:16.110Z,4.00
2018-06-17T12:39:48.650Z,3.80
2018-06-17T12:48:22.150Z,3.30
2018-06-17T12:50:55.161Z,3.80
2018-06-17T12:53:28.742Z,3.70
2018-06-17T13:16:01.760Z,3.87
2018-06-17T13:18:34.405Z,3.80
2018-06-17T13:21:07.080Z,3.97
2018-06-17T13:23:38.675Z,3.70
2018-06-17T13:26:10.435Z,3.80
2018-06-17T13:28:41.825Z,3.30
2018-06-17T13:31:13.426Z,3.43
2018-06-17T13:33:44.324Z,3.50
2018-06-17T13:36:15.570Z,3.50
2018-06-17T13:38:47.125Z,3.63
2018-06-17T13:41:18.559Z,4.00
2018-06-17T13:43:50.702Z,3.63
2018-06-17T13:46:23.599Z,4.60
2018-06-17T13:48:57.225Z,4.40
2018-06-17T13:51:29.660Z,4.03
2018-06-17T13:54:01.631Z,3.70
2018-06-17T13:56:35.576Z,4.00
2018-06-17T13:59:06.931Z,3.90
2018-06-17T14:01:38.531Z,3.57
2018-06-17T14:04:09.374Z,3.57
2018-06-17T14:06:40.688Z,4.10
2018-06-17T14:09:12.073Z,3.43
2018-06-17T14:11:43.481Z,3.67
2018-06-17T14:14:14.785Z,3.80
2018-06-17T14:16:46.209Z,3.70
2018-06-17T14:19:17.508Z,3.73
2018-06-17T14:21:49.200Z,3.50
2018-06-17T14:24:20.552Z,3.50
2018-06-17T14:26:52.198Z,3.83
2018-06-17T14:29:23.596Z,4.17
2018-06-17T14:31:55.981Z,3.73
2018-06-17T14:34:27.835Z,3.57
2018-06-17T14:36:59.571Z,3.73
2018-06-17T14:39:30.892Z,3.27
2018-06-17T14:42:07.265Z,3.90
2018-06-17T14:44:43.433Z,3.60
2018-06-17T14:47:19.688Z,3.60
2018-06-17T14:49:56.025Z,3.90
2018-06-17T14:52:36.814Z,3.60
2018-06-17T14:55:08.337Z,3.90
2018-06-17T14:57:40.317Z,3.77
2018-06-17T15:00:11.681Z,3.50
2018-06-17T15:02:43.097Z,3.40
2018-06-17T15:05:17.601Z,4.10
2018-06-17T15:07:49.133Z,3.67
2018-06-17T15:10:22.485Z,3.70
2018-06-17T15:12:53.731Z,3.37
2018-06-17T15:15:25.530Z,3.53
2018-06-17T15:17:57.002Z,3.60
2018-06-17T15:20:28.783Z,3.50
2018-06-17T15:23:00.113Z,3.13
2018-06-17T15:25:31.629Z,3.40
2018-06-17T15:28:02.953Z,3.47
2018-06-17T15:30:34.340Z,3.80
2018-06-17T15:33:10.524Z,3.73
2018-06-17T15:35:46.255Z,4.10
2018-06-17T15:38:21.949Z,3.90
2018-06-17T15:40:58.073Z,3.67
2018-06-17T15:43:30.027Z,3.40
2018-06-17T15:46:00.858Z,3.67
2018-06-17T15:48:32.113Z,3.50
2018-06-17T15:51:03.500Z,3.63
2018-06-17T15:53:35.239Z,4.07
2018-06-17T15:56:06.721Z,3.67
2018-06-17T15:58:38.279Z,3.63
2018-06-17T16:01:09.799Z,3.50
2018-06-17T16:03:41.191Z,3.60
2018-06-17T16:06:12.476Z,3.50
2018-06-17T16:08:44.274Z,3.53
2018-06-17T16:11:16.097Z,4.27
2018-06-17T16:13:52.692Z,4.07
2018-06-17T16:16:29.461Z,3.77
2018-06-17T16:19:05.880Z,3.80
2018-06-17T16:21:37.274Z,3.43
2018-06-17T16:24:09.062Z,3.50
2018-06-17T16:26:40.471Z,3.50
2018-06-17T16:29:13.752Z,3.80
2018-06-17T16:31:44.932Z,3.40
2018-06-17T16:34:19.346Z,4.40
2018-06-17T16:36:51.073Z,3.60
2018-06-17T16:39:21.976Z,3.33
2018-06-17T16:48:07.161Z,3.50
2018-06-17T16:50:39.207Z,3.87
2018-06-17T16:53:15.436Z,4.50
2018-06-17T16:55:51.688Z,3.73
2018-06-17T16:58:28.093Z,3.53
2018-06-17T17:00:59.575Z,3.50
2018-06-17T17:03:30.898Z,3.80
2018-06-17T17:06:02.322Z,3.60
2018-06-17T17:08:33.727Z,3.43
2018-06-17T17:11:05.276Z,3.70
2018-06-17T17:13:36.685Z,3.40
2018-06-17T17:16:08.126Z,3.50
2018-06-17T17:18:39.539Z,3.70
2018-06-17T17:21:10.950Z,3.77
2018-06-17T17:23:42.751Z,3.80
2018-06-17T17:26:14.149Z,3.47
2018-06-17T17:28:45.551Z,3.60
2018-06-17T17:31:24.979Z,3.43
2018-06-17T17:34:02.507Z,3.63
2018-06-17T17:36:38.872Z,3.80
2018-06-17T17:39:15.551Z,3.60
2018-06-17T17:41:49.173Z,3.80
2018-06-17T17:44:20.062Z,3.77
2018-06-17T17:46:56.226Z,3.97
2018-06-17T17:52:01.590Z,4.20
2018-06-17T17:54:31.685Z,3.70
2018-06-17T17:57:01.731Z,3.80
2018-06-17T17:59:36.030Z,3.47
2018-06-17T18:02:06.423Z,3.80
2018-06-17T18:04:36.368Z,4.20
2018-06-17T18:07:06.336Z,4.00
2018-06-17T18:09:36.256Z,4.07
2018-06-17T18:12:06.211Z,3.70
2018-06-17T18:14:36.097Z,3.90
2018-06-17T18:17:06.120Z,3.60
2018-06-17T18:19:36.028Z,3.47
2018-06-17T18:22:06.102Z,3.57
2018-06-17T18:24:36.056Z,3.70
2018-06-17T18:27:12.042Z,3.53
2018-06-17T18:29:46.840Z,4.67
2018-06-17T18:32:21.810Z,3.80
2018-06-17T18:34:56.740Z,4.13
2018-06-17T18:37:27.135Z,4.10
2018-06-17T18:39:57.071Z,3.70
2018-06-17T18:42:27.737Z,3.47
2018-06-17T18:44:57.617Z,3.80
2018-06-17T18:47:32.337Z,4.10
2018-06-17T18:50:02.384Z,4.10
2018-06-17T18:52:32.295Z,3.50
2018-06-17T18:55:02.203Z,3.60
2018-06-17T18:57:32.673Z,3.60
2018-06-17T19:00:02.721Z,3.67
2018-06-17T19:02:32.890Z,3.80
2018-06-17T19:05:02.848Z,3.83
2018-06-17T19:07:32.865Z,3.63
2018-06-17T19:10:07.865Z,3.67
2018-06-17T19:12:42.723Z,3.90
2018-06-17T19:15:17.569Z,3.83
2018-06-17T19:17:52.606Z,3.70
2018-06-17T19:20:22.713Z,3.63
2018-06-17T19:22:52.653Z,3.90
2018-06-17T19:25:24.865Z,4.13
2018-06-17T19:27:55.079Z,3.73
2018-06-17T19:30:27.907Z,3.73
2018-06-17T19:32:58.009Z,3.50
2018-06-17T19:35:28.590Z,3.77
2018-06-17T19:37:59.006Z,3.63
2018-06-17T19:40:29.594Z,3.90
2018-06-17T19:42:59.775Z,3.60
2018-06-17T19:45:29.832Z,3.87
2018-06-17T19:47:59.925Z,3.80
2018-06-17T19:50:35.691Z,3.80
2018-06-17T19:53:10.786Z,3.80
2018-06-17T19:55:45.973Z,3.63
2018-06-17T19:58:20.904Z,3.87
2018-06-17T20:00:53.897Z,4.50
2018-06-17T20:03:23.960Z,3.77
2018-06-17T20:05:55.374Z,3.90
2018-06-17T20:08:25.803Z,4.27
2018-06-17T20:10:55.882Z,4.23
2018-06-17T20:13:26.260Z,4.33
2018-06-17T20:15:56.413Z,4.27
2018-06-17T20:18:28.316Z,3.80
2018-06-17T20:20:58.543Z,4.27
2018-06-17T20:23:29.047Z,4.50
2018-06-17T20:26:00.417Z,4.47
2018-06-17T20:28:30.562Z,4.37
2018-06-17T20:31:05.385Z,5.30
2018-06-17T20:33:40.513Z,5.60
2018-06-17T20:36:16.351Z,5.93
2018-06-17T20:38:53.729Z,5.60
2018-06-17T20:43:36.349Z,6.07
2018-06-17T20:46:06.335Z,4.80
2018-06-17T20:48:36.292Z,4.80
2018-06-17T20:51:06.503Z,4.70
2018-06-17T20:53:36.587Z,4.87
2018-06-17T20:56:07.349Z,4.50
2018-06-17T20:58:37.342Z,4.70
2018-06-17T21:01:07.397Z,4.00
2018-06-17T21:03:37.505Z,4.10
2018-06-17T21:06:08.479Z,4.27
2018-06-17T21:08:38.532Z,4.20
2018-06-17T21:11:08.541Z,4.37
2018-06-17T21:13:38.566Z,4.27
2018-06-17T21:16:08.677Z,5.00
2018-06-17T21:18:43.509Z,4.87
2018-06-17T21:21:18.385Z,4.97
2018-06-17T21:23:53.435Z,4.50
2018-06-17T21:26:28.391Z,4.80
2018-06-17T21:28:58.491Z,4.77
2018-06-17T21:31:28.960Z,4.70
2018-06-17T21:33:59.058Z,4.63
2018-06-17T21:36:29.570Z,4.50
2018-06-17T21:38:59.678Z,5.20
2018-06-17T21:41:29.698Z,4.90
2018-06-17T21:43:59.729Z,4.87
2018-06-17T21:46:29.912Z,4.97
2018-06-17T21:49:00.006Z,4.73
2018-06-17T21:51:30.018Z,4.37
2018-06-17T21:54:00.054Z,4.93
2018-06-17T22:08:48.882Z,4.70
2018-06-17T22:11:23.874Z,4.50
2018-06-17T22:13:58.912Z,4.77
2018-06-17T22:16:34.424Z,4.67
2018-06-17T22:19:04.654Z,4.70
2018-06-17T22:21:34.843Z,4.70
2018-06-17T22:24:05.370Z,4.97
2018-06-17T22:26:35.389Z,5.00
2018-06-17T22:29:05.387Z,5.07
2018-06-17T22:31:35.695Z,4.67
2018-06-17T22:34:05.751Z,5.00
2018-06-17T22:36:35.949Z,5.33
2018-06-17T22:39:08.672Z,4.60
2018-06-17T22:41:40.381Z,4.80
2018-06-17T22:44:10.572Z,4.87
2018-06-17T22:46:40.536Z,5.00
2018-06-17T22:49:10.444Z,4.83
2018-06-17T22:51:40.486Z,5.20
2018-06-17T22:54:21.280Z,4.90
2018-06-17T22:56:56.267Z,4.63
2018-06-17T22:59:31.168Z,4.77
2018-06-17T23:02:06.143Z,5.07
2018-06-17T23:04:41.108Z,4.90
2018-06-17T23:07:16.237Z,5.13
2018-06-17T23:09:48.753Z,4.70
2018-06-17T23:12:18.754Z,4.50
2018-06-17T23:14:48.691Z,4.70
2018-06-17T23:17:18.740Z,5.30
2018-06-17T23:19:48.898Z,4.97
2018-06-17T23:22:18.896Z,5.27
2018-06-17T23:24:49.063Z,5.17
2018-06-17T23:27:19.034Z,5.17
2018-06-17T23:29:48.926Z,5.57
2018-06-17T23:32:19.235Z,6.20
2018-06-17T23:34:49.280Z,6.10
2018-06-17T23:37:19.264Z,5.23
2018-06-17T23:39:49.144Z,5.93
2018-06-17T23:42:20.618Z,5.63
2018-06-17T23:44:50.950Z,5.93
2018-06-17T23:47:26.390Z,6.13
2018-06-17T23:50:01.470Z,5.83
2018-06-17T23:52:36.497Z,5.93
2018-06-17T23:55:13.754Z,5.73
2018-06-17T23:57:44.782Z,5.33
